Forside
METAR-TAF:

METAR-TAF

Lufthavne :

Chicago Rockford International Airport

Rockford, Illinois, USA

Breddekreds: 42-11-34N, længdekreds: 089-05-36W, højde: 224 m

Aktuelle vejr

Denne rapport blev lavet for 23 minutter siden, kl. 08:54 UTC
Vind stille
Temperatur 1°C
Fugtighed 80%
Tryk 1015 hPa
Sigt: 16.1 km
Overskyet i en højde af 3900 ft

METAR: KRFD 130854Z 00000KT 10SM OVC039 01/M02 A2998 RMK AO2 SLP160 T00061022 56007

Tid: 03:17 (09:17 UTC)

Vejrudsigter

Denne rapport blev lavet for 17 minutter siden, kl. 09:00 UTC
Foreløbig gælder fra 13 på 09 UTC til 14 på 06 UTC
Vind 4 kt fra varierende retninger
Sigt: 10 km
Overskyet i en højde af 3500 ft
Midlertidig
fra 13 på 13 UTC til 13 på 17 UTC
Overskyet i en højde af 1500 ft

TAF: KRFD 130900Z 1309/1406 VRB04KT P6SM OVC035 TEMPO 1313/1317 OVC015

Vejrobservationer og prognoser fra mere end 4000 lufthavne (METAR og TAF).

De gule og røde prikker repræsenterer de meteorologiske stationer.

Flyt musen over at se navnet på stationen.

Så klik over at se vejr observationer og prognoser.

At skifte det kort: Klik på de grønne knapper med et sort kors for at zoome ind; på den grønne knap med en bindestreg for at zoome ud; eller på de grønne pile for tilstødende kort.


METAR-TAF: